sensor_id;sensor_type;location;lat;lon;timestamp;P1;durP1;ratioP1;P2;durP2;ratioP2
10872;SDS011;34586;53.616;10.032;2023-04-25T00:00:15;6.30;;;4.10;;
10872;SDS011;34586;53.616;10.032;2023-04-25T00:02:41;7.70;;;4.23;;
10872;SDS011;34586;53.616;10.032;2023-04-25T00:05:09;8.23;;;4.23;;
10872;SDS011;34586;53.616;10.032;2023-04-25T00:07:35;6.63;;;4.27;;
10872;SDS011;34586;53.616;10.032;2023-04-25T00:10:00;8.53;;;4.47;;
10872;SDS011;34586;53.616;10.032;2023-04-25T00:12:27;9.50;;;5.47;;
10872;SDS011;34586;53.616;10.032;2023-04-25T00:14:55;10.27;;;4.63;;
10872;SDS011;34586;53.616;10.032;2023-04-25T00:17:24;9.47;;;4.27;;
10872;SDS011;34586;53.616;10.032;2023-04-25T00:19:51;13.90;;;5.13;;
10872;SDS011;34586;53.616;10.032;2023-04-25T00:22:17;12.53;;;4.60;;
10872;SDS011;34586;53.616;10.032;2023-04-25T00:24:45;10.60;;;4.90;;
10872;SDS011;34586;53.616;10.032;2023-04-25T00:27:12;16.10;;;4.40;;
10872;SDS011;34586;53.616;10.032;2023-04-25T00:29:37;16.33;;;4.70;;
10872;SDS011;34586;53.616;10.032;2023-04-25T00:32:03;13.73;;;3.77;;
10872;SDS011;34586;53.616;10.032;2023-04-25T00:34:29;15.83;;;4.20;;
10872;SDS011;34586;53.616;10.032;2023-04-25T00:36:54;15.93;;;4.30;;
10872;SDS011;34586;53.616;10.032;2023-04-25T00:39:20;15.47;;;4.23;;
10872;SDS011;34586;53.616;10.032;2023-04-25T00:41:46;16.10;;;4.50;;
10872;SDS011;34586;53.616;10.032;2023-04-25T00:44:13;17.73;;;4.07;;
10872;SDS011;34586;53.616;10.032;2023-04-25T00:46:42;20.17;;;4.07;;
10872;SDS011;34586;53.616;10.032;2023-04-25T00:49:09;21.27;;;4.60;;
10872;SDS011;34586;53.616;10.032;2023-04-25T00:51:40;15.40;;;4.17;;
10872;SDS011;34586;53.616;10.032;2023-04-25T00:54:06;17.20;;;3.90;;
10872;SDS011;34586;53.616;10.032;2023-04-25T00:56:31;22.47;;;3.87;;
10872;SDS011;34586;53.616;10.032;2023-04-25T00:58:57;25.10;;;4.50;;
10872;SDS011;34586;53.616;10.032;2023-04-25T01:01:23;22.77;;;4.47;;
10872;SDS011;34586;53.616;10.032;2023-04-25T01:03:49;16.33;;;3.60;;
10872;SDS011;34586;53.616;10.032;2023-04-25T01:06:17;23.00;;;4.87;;
10872;SDS011;34586;53.616;10.032;2023-04-25T01:08:44;17.60;;;4.13;;
10872;SDS011;34586;53.616;10.032;2023-04-25T01:11:15;16.50;;;3.30;;
10872;SDS011;34586;53.616;10.032;2023-04-25T01:13:41;18.07;;;3.83;;
10872;SDS011;34586;53.616;10.032;2023-04-25T01:16:07;21.33;;;4.67;;
10872;SDS011;34586;53.616;10.032;2023-04-25T01:18:33;23.70;;;4.40;;
10872;SDS011;34586;53.616;10.032;2023-04-25T01:21:08;19.70;;;4.20;;
10872;SDS011;34586;53.616;10.032;2023-04-25T01:23:35;29.43;;;4.73;;
10872;SDS011;34586;53.616;10.032;2023-04-25T01:26:03;24.20;;;4.40;;
10872;SDS011;34586;53.616;10.032;2023-04-25T01:28:29;23.70;;;4.63;;
10872;SDS011;34586;53.616;10.032;2023-04-25T01:30:56;17.30;;;4.13;;
10872;SDS011;34586;53.616;10.032;2023-04-25T01:33:25;26.13;;;4.73;;
10872;SDS011;34586;53.616;10.032;2023-04-25T01:35:52;24.30;;;4.50;;
10872;SDS011;34586;53.616;10.032;2023-04-25T01:38:17;24.83;;;4.43;;
10872;SDS011;34586;53.616;10.032;2023-04-25T01:40:44;22.00;;;4.60;;
10872;SDS011;34586;53.616;10.032;2023-04-25T01:43:11;20.13;;;4.17;;
10872;SDS011;34586;53.616;10.032;2023-04-25T01:45:39;22.33;;;4.67;;
10872;SDS011;34586;53.616;10.032;2023-04-25T01:48:07;25.00;;;5.30;;
10872;SDS011;34586;53.616;10.032;2023-04-25T01:50:37;20.47;;;4.50;;
10872;SDS011;34586;53.616;10.032;2023-04-25T01:53:04;25.13;;;4.63;;
10872;SDS011;34586;53.616;10.032;2023-04-25T01:55:30;25.70;;;5.00;;
10872;SDS011;34586;53.616;10.032;2023-04-25T01:57:55;17.03;;;4.40;;
10872;SDS011;34586;53.616;10.032;2023-04-25T02:00:22;20.87;;;4.73;;
10872;SDS011;34586;53.616;10.032;2023-04-25T02:02:48;22.93;;;4.70;;
10872;SDS011;34586;53.616;10.032;2023-04-25T02:05:15;22.30;;;4.20;;
10872;SDS011;34586;53.616;10.032;2023-04-25T02:07:42;19.87;;;4.70;;
10872;SDS011;34586;53.616;10.032;2023-04-25T02:10:08;17.17;;;3.70;;
10872;SDS011;34586;53.616;10.032;2023-04-25T02:12:35;17.13;;;4.20;;
10872;SDS011;34586;53.616;10.032;2023-04-25T02:15:00;21.37;;;4.30;;
10872;SDS011;34586;53.616;10.032;2023-04-25T02:17:26;25.10;;;4.43;;
10872;SDS011;34586;53.616;10.032;2023-04-25T02:19:52;20.13;;;4.13;;
10872;SDS011;34586;53.616;10.032;2023-04-25T02:22:17;19.70;;;3.20;;
10872;SDS011;34586;53.616;10.032;2023-04-25T02:24:45;19.70;;;4.60;;
10872;SDS011;34586;53.616;10.032;2023-04-25T02:27:11;18.07;;;4.20;;
10872;SDS011;34586;53.616;10.032;2023-04-25T02:29:37;16.60;;;4.23;;
10872;SDS011;34586;53.616;10.032;2023-04-25T02:32:03;22.07;;;4.00;;
10872;SDS011;34586;53.616;10.032;2023-04-25T02:34:29;26.37;;;4.47;;
10872;SDS011;34586;53.616;10.032;2023-04-25T02:36:54;21.87;;;3.77;;
10872;SDS011;34586;53.616;10.032;2023-04-25T02:39:20;22.47;;;4.23;;
10872;SDS011;34586;53.616;10.032;2023-04-25T02:41:47;21.87;;;5.03;;
10872;SDS011;34586;53.616;10.032;2023-04-25T02:44:12;17.93;;;3.87;;
10872;SDS011;34586;53.616;10.032;2023-04-25T02:46:38;21.63;;;4.47;;
10872;SDS011;34586;53.616;10.032;2023-04-25T02:49:04;16.47;;;3.60;;
10872;SDS011;34586;53.616;10.032;2023-04-25T02:51:30;23.57;;;3.80;;
10872;SDS011;34586;53.616;10.032;2023-04-25T02:53:55;17.10;;;3.83;;
10872;SDS011;34586;53.616;10.032;2023-04-25T02:56:21;21.97;;;4.43;;
10872;SDS011;34586;53.616;10.032;2023-04-25T02:58:47;16.47;;;3.90;;
10872;SDS011;34586;53.616;10.032;2023-04-25T03:01:12;20.93;;;4.60;;
10872;SDS011;34586;53.616;10.032;2023-04-25T03:03:38;21.80;;;4.40;;
10872;SDS011;34586;53.616;10.032;2023-04-25T03:06:03;17.70;;;4.33;;
10872;SDS011;34586;53.616;10.032;2023-04-25T03:08:29;16.33;;;3.93;;
10872;SDS011;34586;53.616;10.032;2023-04-25T03:10:57;16.07;;;3.63;;
10872;SDS011;34586;53.616;10.032;2023-04-25T03:13:23;16.97;;;3.57;;
10872;SDS011;34586;53.616;10.032;2023-04-25T03:15:49;20.70;;;4.63;;
10872;SDS011;34586;53.616;10.032;2023-04-25T03:18:15;12.83;;;3.30;;
10872;SDS011;34586;53.616;10.032;2023-04-25T03:20:41;22.10;;;4.10;;
10872;SDS011;34586;53.616;10.032;2023-04-25T03:23:07;13.90;;;4.07;;
10872;SDS011;34586;53.616;10.032;2023-04-25T03:25:32;18.23;;;3.83;;
10872;SDS011;34586;53.616;10.032;2023-04-25T03:27:58;14.20;;;3.30;;
10872;SDS011;34586;53.616;10.032;2023-04-25T03:30:23;18.17;;;4.00;;
10872;SDS011;34586;53.616;10.032;2023-04-25T03:32:49;20.53;;;4.07;;
10872;SDS011;34586;53.616;10.032;2023-04-25T03:35:15;14.67;;;3.57;;
10872;SDS011;34586;53.616;10.032;2023-04-25T03:37:41;19.00;;;3.77;;
10872;SDS011;34586;53.616;10.032;2023-04-25T03:40:10;16.00;;;3.63;;
10872;SDS011;34586;53.616;10.032;2023-04-25T03:42:36;19.17;;;4.10;;
10872;SDS011;34586;53.616;10.032;2023-04-25T03:45:01;14.33;;;2.97;;
10872;SDS011;34586;53.616;10.032;2023-04-25T03:47:27;13.90;;;3.57;;
10872;SDS011;34586;53.616;10.032;2023-04-25T03:49:53;14.70;;;3.30;;
10872;SDS011;34586;53.616;10.032;2023-04-25T03:52:19;15.10;;;3.33;;
10872;SDS011;34586;53.616;10.032;2023-04-25T03:54:45;15.87;;;3.37;;
10872;SDS011;34586;53.616;10.032;2023-04-25T03:57:11;12.30;;;3.83;;
10872;SDS011;34586;53.616;10.032;2023-04-25T03:59:36;18.27;;;3.23;;
10872;SDS011;34586;53.616;10.032;2023-04-25T04:02:04;18.90;;;4.20;;
10872;SDS011;34586;53.616;10.032;2023-04-25T04:04:29;8.80;;;3.00;;
10872;SDS011;34586;53.616;10.032;2023-04-25T04:06:55;15.23;;;3.77;;
10872;SDS011;34586;53.616;10.032;2023-04-25T04:09:21;15.23;;;3.33;;
10872;SDS011;34586;53.616;10.032;2023-04-25T04:11:46;17.13;;;3.37;;
10872;SDS011;34586;53.616;10.032;2023-04-25T04:14:13;18.53;;;3.40;;
10872;SDS011;34586;53.616;10.032;2023-04-25T04:16:39;13.90;;;3.43;;
10872;SDS011;34586;53.616;10.032;2023-04-25T04:19:04;19.77;;;3.47;;
10872;SDS011;34586;53.616;10.032;2023-04-25T04:21:31;16.80;;;3.13;;
10872;SDS011;34586;53.616;10.032;2023-04-25T04:23:58;11.93;;;2.93;;
10872;SDS011;34586;53.616;10.032;2023-04-25T04:26:24;17.27;;;3.47;;
10872;SDS011;34586;53.616;10.032;2023-04-25T04:28:51;19.00;;;3.37;;
10872;SDS011;34586;53.616;10.032;2023-04-25T04:31:19;17.03;;;3.87;;
10872;SDS011;34586;53.616;10.032;2023-04-25T04:33:46;13.80;;;3.07;;
10872;SDS011;34586;53.616;10.032;2023-04-25T04:36:12;12.13;;;3.23;;
10872;SDS011;34586;53.616;10.032;2023-04-25T04:38:38;15.40;;;3.00;;
10872;SDS011;34586;53.616;10.032;2023-04-25T04:41:05;12.93;;;3.60;;
10872;SDS011;34586;53.616;10.032;2023-04-25T04:43:31;12.93;;;3.00;;
10872;SDS011;34586;53.616;10.032;2023-04-25T04:45:58;18.53;;;3.53;;
10872;SDS011;34586;53.616;10.032;2023-04-25T04:48:25;17.07;;;3.27;;
10872;SDS011;34586;53.616;10.032;2023-04-25T04:50:51;11.67;;;2.30;;
10872;SDS011;34586;53.616;10.032;2023-04-25T04:53:17;14.53;;;3.00;;
10872;SDS011;34586;53.616;10.032;2023-04-25T04:55:43;14.13;;;3.07;;
10872;SDS011;34586;53.616;10.032;2023-04-25T04:58:08;9.87;;;3.03;;
10872;SDS011;34586;53.616;10.032;2023-04-25T05:00:34;13.63;;;3.50;;
10872;SDS011;34586;53.616;10.032;2023-04-25T05:03:00;10.90;;;2.90;;
10872;SDS011;34586;53.616;10.032;2023-04-25T05:05:26;14.57;;;3.30;;
10872;SDS011;34586;53.616;10.032;2023-04-25T05:07:51;15.83;;;2.97;;
10872;SDS011;34586;53.616;10.032;2023-04-25T05:10:18;16.90;;;3.63;;
10872;SDS011;34586;53.616;10.032;2023-04-25T05:12:44;13.33;;;3.30;;
10872;SDS011;34586;53.616;10.032;2023-04-25T05:15:10;16.77;;;3.73;;
10872;SDS011;34586;53.616;10.032;2023-04-25T05:17:36;13.30;;;3.00;;
10872;SDS011;34586;53.616;10.032;2023-04-25T05:20:01;16.33;;;3.27;;
10872;SDS011;34586;53.616;10.032;2023-04-25T05:22:27;9.37;;;2.90;;
10872;SDS011;34586;53.616;10.032;2023-04-25T05:24:54;13.90;;;3.13;;
10872;SDS011;34586;53.616;10.032;2023-04-25T05:27:20;16.10;;;3.10;;
10872;SDS011;34586;53.616;10.032;2023-04-25T05:29:46;12.93;;;2.47;;
10872;SDS011;34586;53.616;10.032;2023-04-25T05:32:12;17.00;;;3.47;;
10872;SDS011;34586;53.616;10.032;2023-04-25T05:34:38;10.57;;;2.97;;
10872;SDS011;34586;53.616;10.032;2023-04-25T05:37:04;15.70;;;3.23;;
10872;SDS011;34586;53.616;10.032;2023-04-25T05:39:30;14.90;;;3.30;;
10872;SDS011;34586;53.616;10.032;2023-04-25T05:41:56;12.53;;;2.80;;
10872;SDS011;34586;53.616;10.032;2023-04-25T05:44:22;8.60;;;2.83;;
10872;SDS011;34586;53.616;10.032;2023-04-25T05:46:48;9.80;;;2.93;;
10872;SDS011;34586;53.616;10.032;2023-04-25T05:49:14;13.60;;;2.70;;
10872;SDS011;34586;53.616;10.032;2023-04-25T05:51:39;30.17;;;11.13;;
10872;SDS011;34586;53.616;10.032;2023-04-25T05:54:05;25.53;;;8.80;;
10872;SDS011;34586;53.616;10.032;2023-04-25T05:56:31;26.73;;;12.07;;
10872;SDS011;34586;53.616;10.032;2023-04-25T05:58:56;30.40;;;14.27;;
10872;SDS011;34586;53.616;10.032;2023-04-25T06:01:22;33.70;;;14.67;;
10872;SDS011;34586;53.616;10.032;2023-04-25T06:03:48;27.33;;;10.30;;
10872;SDS011;34586;53.616;10.032;2023-04-25T06:06:14;30.27;;;14.67;;
10872;SDS011;34586;53.616;10.032;2023-04-25T06:08:41;18.07;;;7.10;;
10872;SDS011;34586;53.616;10.032;2023-04-25T06:11:07;26.83;;;11.00;;
10872;SDS011;34586;53.616;10.032;2023-04-25T06:13:32;20.57;;;5.80;;
10872;SDS011;34586;53.616;10.032;2023-04-25T06:15:58;18.30;;;7.73;;
10872;SDS011;34586;53.616;10.032;2023-04-25T06:18:24;15.80;;;5.97;;
10872;SDS011;34586;53.616;10.032;2023-04-25T06:20:49;20.77;;;8.73;;
10872;SDS011;34586;53.616;10.032;2023-04-25T06:23:15;22.23;;;7.33;;
10872;SDS011;34586;53.616;10.032;2023-04-25T06:25:41;18.03;;;4.13;;
10872;SDS011;34586;53.616;10.032;2023-04-25T06:28:06;11.63;;;3.10;;
10872;SDS011;34586;53.616;10.032;2023-04-25T06:30:32;18.80;;;6.50;;
10872;SDS011;34586;53.616;10.032;2023-04-25T06:32:57;16.90;;;5.80;;
10872;SDS011;34586;53.616;10.032;2023-04-25T06:35:23;14.50;;;6.20;;
10872;SDS011;34586;53.616;10.032;2023-04-25T06:37:49;10.77;;;3.67;;
10872;SDS011;34586;53.616;10.032;2023-04-25T06:40:14;13.47;;;3.53;;
10872;SDS011;34586;53.616;10.032;2023-04-25T06:42:42;9.37;;;3.53;;
10872;SDS011;34586;53.616;10.032;2023-04-25T06:45:09;17.00;;;3.57;;
10872;SDS011;34586;53.616;10.032;2023-04-25T06:47:36;12.87;;;2.50;;
10872;SDS011;34586;53.616;10.032;2023-04-25T06:50:01;18.50;;;6.97;;
10872;SDS011;34586;53.616;10.032;2023-04-25T06:52:27;20.13;;;6.13;;
10872;SDS011;34586;53.616;10.032;2023-04-25T06:54:53;20.03;;;7.53;;
10872;SDS011;34586;53.616;10.032;2023-04-25T06:57:19;21.93;;;5.83;;
10872;SDS011;34586;53.616;10.032;2023-04-25T06:59:45;20.73;;;7.47;;
10872;SDS011;34586;53.616;10.032;2023-04-25T07:02:11;17.83;;;4.83;;
10872;SDS011;34586;53.616;10.032;2023-04-25T07:04:36;24.67;;;5.90;;
10872;SDS011;34586;53.616;10.032;2023-04-25T07:07:02;21.57;;;5.43;;
10872;SDS011;34586;53.616;10.032;2023-04-25T07:09:28;12.13;;;3.43;;
10872;SDS011;34586;53.616;10.032;2023-04-25T07:11:58;8.47;;;2.30;;
10872;SDS011;34586;53.616;10.032;2023-04-25T07:14:26;11.43;;;2.40;;
10872;SDS011;34586;53.616;10.032;2023-04-25T07:16:51;10.20;;;2.07;;
10872;SDS011;34586;53.616;10.032;2023-04-25T07:19:17;7.40;;;2.00;;
10872;SDS011;34586;53.616;10.032;2023-04-25T07:21:42;13.10;;;2.60;;
10872;SDS011;34586;53.616;10.032;2023-04-25T07:24:08;12.97;;;2.30;;
10872;SDS011;34586;53.616;10.032;2023-04-25T07:26:33;9.60;;;1.77;;
10872;SDS011;34586;53.616;10.032;2023-04-25T07:28:59;8.03;;;2.00;;
10872;SDS011;34586;53.616;10.032;2023-04-25T07:31:25;9.37;;;2.60;;
10872;SDS011;34586;53.616;10.032;2023-04-25T07:33:51;7.73;;;2.07;;
10872;SDS011;34586;53.616;10.032;2023-04-25T07:36:17;7.67;;;2.30;;
10872;SDS011;34586;53.616;10.032;2023-04-25T07:38:42;11.57;;;2.60;;
10872;SDS011;34586;53.616;10.032;2023-04-25T07:41:08;11.73;;;2.70;;
10872;SDS011;34586;53.616;10.032;2023-04-25T07:43:34;11.50;;;2.33;;
10872;SDS011;34586;53.616;10.032;2023-04-25T07:46:00;10.50;;;2.77;;
10872;SDS011;34586;53.616;10.032;2023-04-25T07:48:25;7.53;;;2.13;;
10872;SDS011;34586;53.616;10.032;2023-04-25T07:50:52;10.70;;;2.80;;
10872;SDS011;34586;53.616;10.032;2023-04-25T07:53:18;8.03;;;2.30;;
10872;SDS011;34586;53.616;10.032;2023-04-25T07:55:43;15.03;;;2.03;;
10872;SDS011;34586;53.616;10.032;2023-04-25T07:58:09;11.10;;;2.53;;
10872;SDS011;34586;53.616;10.032;2023-04-25T08:00:36;11.60;;;2.53;;
10872;SDS011;34586;53.616;10.032;2023-04-25T08:03:02;7.23;;;2.63;;
10872;SDS011;34586;53.616;10.032;2023-04-25T08:05:28;8.53;;;2.10;;
10872;SDS011;34586;53.616;10.032;2023-04-25T08:07:54;9.17;;;2.43;;
10872;SDS011;34586;53.616;10.032;2023-04-25T08:10:21;9.77;;;2.60;;
10872;SDS011;34586;53.616;10.032;2023-04-25T08:12:48;11.07;;;2.63;;
10872;SDS011;34586;53.616;10.032;2023-04-25T08:15:13;11.03;;;2.50;;
10872;SDS011;34586;53.616;10.032;2023-04-25T08:17:39;11.53;;;2.80;;
10872;SDS011;34586;53.616;10.032;2023-04-25T08:20:05;9.57;;;1.80;;
10872;SDS011;34586;53.616;10.032;2023-04-25T08:22:33;8.67;;;1.77;;
10872;SDS011;34586;53.616;10.032;2023-04-25T08:24:59;10.23;;;2.73;;
10872;SDS011;34586;53.616;10.032;2023-04-25T08:27:25;4.83;;;1.60;;
10872;SDS011;34586;53.616;10.032;2023-04-25T08:29:51;8.37;;;1.67;;
10872;SDS011;34586;53.616;10.032;2023-04-25T08:32:16;7.87;;;1.47;;
10872;SDS011;34586;53.616;10.032;2023-04-25T08:34:43;5.70;;;1.80;;
10872;SDS011;34586;53.616;10.032;2023-04-25T08:37:09;7.20;;;1.70;;
10872;SDS011;34586;53.616;10.032;2023-04-25T08:39:35;11.13;;;2.17;;
10872;SDS011;34586;53.616;10.032;2023-04-25T08:42:02;9.47;;;1.50;;
10872;SDS011;34586;53.616;10.032;2023-04-25T08:44:34;10.57;;;2.33;;
10872;SDS011;34586;53.616;10.032;2023-04-25T08:47:02;10.90;;;2.03;;
10872;SDS011;34586;53.616;10.032;2023-04-25T08:49:29;13.57;;;2.50;;
10872;SDS011;34586;53.616;10.032;2023-04-25T08:51:59;14.90;;;2.63;;
10872;SDS011;34586;53.616;10.032;2023-04-25T08:54:28;12.00;;;2.70;;
10872;SDS011;34586;53.616;10.032;2023-04-25T08:56:57;11.37;;;2.40;;
10872;SDS011;34586;53.616;10.032;2023-04-25T08:59:27;10.07;;;2.53;;
10872;SDS011;34586;53.616;10.032;2023-04-25T09:01:54;15.53;;;2.87;;
10872;SDS011;34586;53.616;10.032;2023-04-25T09:04:20;15.63;;;5.10;;
10872;SDS011;34586;53.616;10.032;2023-04-25T09:06:46;15.57;;;3.80;;
10872;SDS011;34586;53.616;10.032;2023-04-25T09:09:12;13.47;;;3.77;;
10872;SDS011;34586;53.616;10.032;2023-04-25T09:11:38;17.87;;;3.47;;
10872;SDS011;34586;53.616;10.032;2023-04-25T09:14:16;11.60;;;3.50;;
10872;SDS011;34586;53.616;10.032;2023-04-25T09:19:36;8.50;;;2.03;;
10872;SDS011;34586;53.616;10.032;2023-04-25T09:22:05;9.00;;;2.57;;
10872;SDS011;34586;53.616;10.032;2023-04-25T09:24:35;9.80;;;2.03;;
10872;SDS011;34586;53.616;10.032;2023-04-25T09:27:08;9.03;;;2.10;;
10872;SDS011;34586;53.616;10.032;2023-04-25T09:29:39;8.70;;;2.10;;
10872;SDS011;34586;53.616;10.032;2023-04-25T09:34:46;6.67;;;1.43;;
10872;SDS011;34586;53.616;10.032;2023-04-25T09:37:25;9.13;;;1.87;;
10872;SDS011;34586;53.616;10.032;2023-04-25T09:39:59;8.57;;;1.80;;
10872;SDS011;34586;53.616;10.032;2023-04-25T09:42:33;8.40;;;2.00;;
10872;SDS011;34586;53.616;10.032;2023-04-25T09:45:01;4.47;;;1.27;;
10872;SDS011;34586;53.616;10.032;2023-04-25T09:47:28;7.70;;;1.67;;
10872;SDS011;34586;53.616;10.032;2023-04-25T09:49:54;7.30;;;1.90;;
10872;SDS011;34586;53.616;10.032;2023-04-25T09:52:21;5.93;;;1.40;;
10872;SDS011;34586;53.616;10.032;2023-04-25T09:54:48;9.23;;;1.47;;
10872;SDS011;34586;53.616;10.032;2023-04-25T09:59:43;9.67;;;1.80;;
10872;SDS011;34586;53.616;10.032;2023-04-25T10:02:23;7.00;;;1.73;;
10872;SDS011;34586;53.616;10.032;2023-04-25T10:04:53;10.93;;;2.73;;
10872;SDS011;34586;53.616;10.032;2023-04-25T10:07:24;14.23;;;2.20;;
10872;SDS011;34586;53.616;10.032;2023-04-25T10:09:55;9.27;;;1.80;;
10872;SDS011;34586;53.616;10.032;2023-04-25T10:12:27;9.73;;;1.70;;
10872;SDS011;34586;53.616;10.032;2023-04-25T10:14:58;7.40;;;1.83;;
10872;SDS011;34586;53.616;10.032;2023-04-25T10:17:28;4.57;;;1.30;;
10872;SDS011;34586;53.616;10.032;2023-04-25T10:19:54;7.87;;;1.37;;
10872;SDS011;34586;53.616;10.032;2023-04-25T10:24:53;6.77;;;1.50;;
10872;SDS011;34586;53.616;10.032;2023-04-25T10:27:22;3.83;;;1.40;;
10872;SDS011;34586;53.616;10.032;2023-04-25T10:30:09;8.60;;;1.37;;
10872;SDS011;34586;53.616;10.032;2023-04-25T10:32:37;5.47;;;1.27;;
10872;SDS011;34586;53.616;10.032;2023-04-25T10:35:13;4.67;;;1.17;;
10872;SDS011;34586;53.616;10.032;2023-04-25T10:38:05;4.67;;;1.43;;
10872;SDS011;34586;53.616;10.032;2023-04-25T10:40:35;9.40;;;1.50;;
10872;SDS011;34586;53.616;10.032;2023-04-25T10:46:00;11.03;;;2.00;;
10872;SDS011;34586;53.616;10.032;2023-04-25T10:48:26;9.27;;;1.70;;
10872;SDS011;34586;53.616;10.032;2023-04-25T10:51:09;8.77;;;1.53;;
10872;SDS011;34586;53.616;10.032;2023-04-25T10:53:56;7.97;;;1.87;;
10872;SDS011;34586;53.616;10.032;2023-04-25T10:56:26;6.47;;;1.60;;
10872;SDS011;34586;53.616;10.032;2023-04-25T10:59:03;9.17;;;1.77;;
10872;SDS011;34586;53.616;10.032;2023-04-25T11:01:43;9.90;;;1.83;;
10872;SDS011;34586;53.616;10.032;2023-04-25T11:04:29;7.37;;;1.30;;
10872;SDS011;34586;53.616;10.032;2023-04-25T11:09:28;5.93;;;1.30;;
10872;SDS011;34586;53.616;10.032;2023-04-25T11:11:55;7.37;;;1.63;;
10872;SDS011;34586;53.616;10.032;2023-04-25T11:14:22;11.03;;;1.73;;
10872;SDS011;34586;53.616;10.032;2023-04-25T11:16:54;6.27;;;1.20;;
10872;SDS011;34586;53.616;10.032;2023-04-25T11:19:24;8.30;;;1.50;;
10872;SDS011;34586;53.616;10.032;2023-04-25T11:21:50;5.00;;;1.10;;
10872;SDS011;34586;53.616;10.032;2023-04-25T11:24:20;2.40;;;0.90;;
10872;SDS011;34586;53.616;10.032;2023-04-25T11:26:56;7.20;;;1.47;;
10872;SDS011;34586;53.616;10.032;2023-04-25T11:29:27;8.80;;;1.40;;
10872;SDS011;34586;53.616;10.032;2023-04-25T11:31:55;8.27;;;1.17;;
10872;SDS011;34586;53.616;10.032;2023-04-25T11:34:23;10.27;;;1.60;;
10872;SDS011;34586;53.616;10.032;2023-04-25T11:36:50;6.80;;;1.40;;
10872;SDS011;34586;53.616;10.032;2023-04-25T11:39:17;7.67;;;1.63;;
10872;SDS011;34586;53.616;10.032;2023-04-25T11:41:43;11.53;;;2.03;;
10872;SDS011;34586;53.616;10.032;2023-04-25T11:44:09;5.07;;;1.47;;
10872;SDS011;34586;53.616;10.032;2023-04-25T11:46:35;6.47;;;1.30;;
10872;SDS011;34586;53.616;10.032;2023-04-25T11:49:01;7.00;;;1.00;;
10872;SDS011;34586;53.616;10.032;2023-04-25T11:51:27;2.67;;;1.03;;
10872;SDS011;34586;53.616;10.032;2023-04-25T11:53:53;10.80;;;1.77;;
10872;SDS011;34586;53.616;10.032;2023-04-25T11:56:18;7.23;;;1.40;;
10872;SDS011;34586;53.616;10.032;2023-04-25T11:58:59;4.20;;;1.17;;
10872;SDS011;34586;53.616;10.032;2023-04-25T12:01:29;4.60;;;1.37;;
10872;SDS011;34586;53.616;10.032;2023-04-25T12:03:55;4.63;;;1.17;;
10872;SDS011;34586;53.616;10.032;2023-04-25T12:06:27;6.10;;;1.03;;
10872;SDS011;34586;53.616;10.032;2023-04-25T12:09:03;7.17;;;1.13;;
10872;SDS011;34586;53.616;10.032;2023-04-25T12:11:32;3.40;;;0.73;;
10872;SDS011;34586;53.616;10.032;2023-04-25T12:14:05;4.03;;;1.20;;
10872;SDS011;34586;53.616;10.032;2023-04-25T12:16:41;5.90;;;0.97;;
10872;SDS011;34586;53.616;10.032;2023-04-25T12:19:13;3.93;;;1.10;;
10872;SDS011;34586;53.616;10.032;2023-04-25T12:21:40;6.17;;;0.90;;
10872;SDS011;34586;53.616;10.032;2023-04-25T12:24:12;5.67;;;1.13;;
10872;SDS011;34586;53.616;10.032;2023-04-25T12:26:48;7.47;;;1.10;;
10872;SDS011;34586;53.616;10.032;2023-04-25T12:29:27;7.90;;;1.07;;
10872;SDS011;34586;53.616;10.032;2023-04-25T12:31:54;4.60;;;1.10;;
10872;SDS011;34586;53.616;10.032;2023-04-25T12:34:22;3.37;;;0.93;;
10872;SDS011;34586;53.616;10.032;2023-04-25T12:36:50;5.37;;;1.43;;
10872;SDS011;34586;53.616;10.032;2023-04-25T12:39:23;4.43;;;1.10;;
10872;SDS011;34586;53.616;10.032;2023-04-25T12:41:52;5.70;;;1.20;;
10872;SDS011;34586;53.616;10.032;2023-04-25T12:44:21;6.07;;;1.40;;
10872;SDS011;34586;53.616;10.032;2023-04-25T12:46:47;4.60;;;1.17;;
10872;SDS011;34586;53.616;10.032;2023-04-25T12:49:15;3.10;;;1.10;;
10872;SDS011;34586;53.616;10.032;2023-04-25T12:51:40;5.40;;;1.17;;
10872;SDS011;34586;53.616;10.032;2023-04-25T12:54:06;5.27;;;1.13;;
10872;SDS011;34586;53.616;10.032;2023-04-25T12:56:33;8.20;;;1.73;;
10872;SDS011;34586;53.616;10.032;2023-04-25T12:58:59;4.83;;;1.20;;
10872;SDS011;34586;53.616;10.032;2023-04-25T13:01:25;5.63;;;1.13;;
10872;SDS011;34586;53.616;10.032;2023-04-25T13:03:51;7.50;;;1.47;;
10872;SDS011;34586;53.616;10.032;2023-04-25T13:06:18;8.40;;;1.47;;
10872;SDS011;34586;53.616;10.032;2023-04-25T13:08:46;2.47;;;0.93;;
10872;SDS011;34586;53.616;10.032;2023-04-25T13:11:11;2.87;;;0.77;;
10872;SDS011;34586;53.616;10.032;2023-04-25T13:13:37;4.40;;;1.13;;
10872;SDS011;34586;53.616;10.032;2023-04-25T13:16:05;5.77;;;1.30;;
10872;SDS011;34586;53.616;10.032;2023-04-25T13:18:31;3.60;;;1.30;;
10872;SDS011;34586;53.616;10.032;2023-04-25T13:20:57;4.10;;;0.97;;
10872;SDS011;34586;53.616;10.032;2023-04-25T13:23:24;6.77;;;1.10;;
10872;SDS011;34586;53.616;10.032;2023-04-25T13:25:51;5.07;;;1.30;;
10872;SDS011;34586;53.616;10.032;2023-04-25T13:28:17;7.47;;;1.30;;
10872;SDS011;34586;53.616;10.032;2023-04-25T13:30:43;4.40;;;1.13;;
10872;SDS011;34586;53.616;10.032;2023-04-25T13:33:09;5.10;;;1.30;;
10872;SDS011;34586;53.616;10.032;2023-04-25T13:35:35;4.40;;;1.10;;
10872;SDS011;34586;53.616;10.032;2023-04-25T13:38:03;4.47;;;1.30;;
10872;SDS011;34586;53.616;10.032;2023-04-25T13:40:29;5.10;;;1.30;;
10872;SDS011;34586;53.616;10.032;2023-04-25T13:42:55;8.93;;;1.63;;
10872;SDS011;34586;53.616;10.032;2023-04-25T13:45:21;5.73;;;1.40;;
10872;SDS011;34586;53.616;10.032;2023-04-25T13:47:47;6.00;;;1.40;;
10872;SDS011;34586;53.616;10.032;2023-04-25T13:50:12;3.53;;;1.00;;
10872;SDS011;34586;53.616;10.032;2023-04-25T13:52:40;6.33;;;1.67;;
10872;SDS011;34586;53.616;10.032;2023-04-25T13:55:07;6.63;;;1.57;;
10872;SDS011;34586;53.616;10.032;2023-04-25T13:57:33;6.53;;;1.57;;
10872;SDS011;34586;53.616;10.032;2023-04-25T14:00:00;4.00;;;1.40;;
10872;SDS011;34586;53.616;10.032;2023-04-25T14:02:31;2.97;;;1.30;;
10872;SDS011;34586;53.616;10.032;2023-04-25T14:04:56;3.83;;;1.13;;
10872;SDS011;34586;53.616;10.032;2023-04-25T14:07:22;5.80;;;1.50;;
10872;SDS011;34586;53.616;10.032;2023-04-25T14:09:47;4.80;;;1.30;;
10872;SDS011;34586;53.616;10.032;2023-04-25T14:12:13;3.87;;;1.30;;
10872;SDS011;34586;53.616;10.032;2023-04-25T14:14:39;5.50;;;1.53;;
10872;SDS011;34586;53.616;10.032;2023-04-25T14:17:05;7.50;;;1.30;;
10872;SDS011;34586;53.616;10.032;2023-04-25T14:19:31;6.70;;;1.33;;
10872;SDS011;34586;53.616;10.032;2023-04-25T14:21:57;6.23;;;1.50;;
10872;SDS011;34586;53.616;10.032;2023-04-25T14:24:23;3.80;;;1.20;;
10872;SDS011;34586;53.616;10.032;2023-04-25T14:26:48;6.83;;;1.23;;
10872;SDS011;34586;53.616;10.032;2023-04-25T14:29:14;8.23;;;1.27;;
10872;SDS011;34586;53.616;10.032;2023-04-25T14:31:41;6.97;;;1.50;;
10872;SDS011;34586;53.616;10.032;2023-04-25T14:34:07;4.57;;;1.27;;
10872;SDS011;34586;53.616;10.032;2023-04-25T14:36:33;7.43;;;1.37;;
10872;SDS011;34586;53.616;10.032;2023-04-25T14:39:00;5.23;;;1.37;;
10872;SDS011;34586;53.616;10.032;2023-04-25T14:41:26;2.73;;;1.07;;